• Join FlightAware (Why Join?)
  • Login
  • US Flag 
01:25PM EST


 

Airport Tracker/Info


-or-


 

Live Flight TrackerFlight Track Log ✈ EJM826 ✈ 06-Nov-2013 ✈ KHOU - KBFM

Flight Track Log - Related Links

Times and Time Zones

All times are in EST time to prevent confusion due to time zone crossing. See the EJM826 flight status page for this flight to view local times or setup timezone preferences in your user account.

Time Position Orientation Groundspeed Altitude Reporting Facility
EST Latitude Longitude Course Direction KTS MPH feet Rate Location/Type
08:05AM 29.6311 -95.2656 142° Southeast 145 167 800  Level Houston Center
08:06AM 29.5694 -95.2106 142° Southeast 227 261 4,000 2,160 Climbing Houston Center
08:07AM 29.5547 -95.1942 136° Southeast 217 250 4,800 2,400 Climbing Houston Center
08:07AM 29.5539 -95.1356 91° East 243 280 6,700 2,040 Climbing Houston Center
08:08AM 29.5558 -95.1231 80° East 243 280 6,900 1,560 Climbing Houston Center
08:09AM 29.5742 -95.0403 76° East 267 307 8,700 1,560 Climbing Houston Center
08:10AM 29.5956 -94.9425 76° East 304 350 10,200 1,380 Climbing Houston Center
08:11AM 29.6203 -94.8353 75° East 341 392 11,600 1,560 Climbing Houston Center
08:12AM 29.6472 -94.6986 77° East 362 417 13,400 1,560 Climbing Houston Center
08:13AM 29.6722 -94.5817 76° East 372 428 14,800 1,620 Climbing Houston Center
08:14AM 29.6939 -94.4622 78° East 380 437 16,700 1,380 Climbing Houston Center
08:15AM 29.7147 -94.3428 79° East 382 440 17,700 1,020 Climbing Houston Center
08:16AM 29.7356 -94.2194 79° East 388 447 18,800 1,080 Climbing Houston Center
08:17AM 29.7569 -94.0947 79° East 394 453 19,900 1,020 Climbing Houston Center
08:18AM 29.7786 -93.9681 79° East 399 459 20,900 960 Climbing Houston Center
08:19AM 29.8003 -93.8392 79° East 405 466 21,900 1,020 Climbing Houston Center
08:20AM 29.8247 -93.6808 80° East 413 475 23,000 900 Climbing Houston Center
08:21AM 29.8467 -93.5458 79° East 424 488 23,800 720 Climbing Houston Center
08:22AM 29.8686 -93.4106 79° East 431 496 24,500 660 Climbing Houston Center
08:23AM 29.8908 -93.2744 79° East 435 501 25,200 720 Climbing Houston Center
08:24AM 29.9133 -93.1367 79° East 440 506 26,000 780 Climbing Houston Center
08:25AM 29.9364 -92.9978 79° East 444 511 26,800 720 Climbing Houston Center
08:26AM 29.9622 -92.8308 80° East 443 510 27,500 660 Climbing Houston Center
08:27AM 29.9853 -92.6889 79° East 451 519 28,200 600 Climbing Houston Center
08:28AM 30.0072 -92.5453 80° East 455 524 28,800 900 Climbing Houston Center
08:29AM 30.0300 -92.4039 79° East 453 521 30,100 960 Climbing Houston Center
08:30AM 30.0514 -92.2633 80° East 447 514 30,800 900 Climbing Houston Center
08:31AM 30.0725 -92.1219 80° East 449 517 32,000 1,020 Climbing Houston Center
08:32AM 30.0947 -91.9808 80° East 449 517 33,000 480 Climbing Houston Center
08:33AM 30.1194 -91.8097 80° East 452 520 33,000  Level Houston Center
08:34AM 30.1394 -91.6822 80° East 463 533 33,000  Level Houston Center
08:35AM 30.1608 -91.5350 80° East 465 535 33,000  Level Houston Center
08:36AM 30.1875 -91.3556 80° East 473 544 33,000  Level Houston Center
08:37AM 30.2100 -91.2047 80° East 476 548 33,000  Level Houston Center
08:38AM 30.2325 -91.0547 80° East 475 547 33,000  Level Houston Center
08:39AM 30.2528 -90.9036 81° East 477 549 33,000  Level Houston Center
08:40AM 30.2750 -90.7531 80° East 477 549 33,000  Level Houston Center
08:42AM 30.2958 -90.6028 81° East 476 548 33,000 -120 Level Houston Center
08:43AM 30.3181 -90.4519 80° East 475 547 32,800 -780 Descending Houston Center
08:44AM 30.3428 -90.2717 81° East 474 545 31,500 -1,500 Descending Houston Center
08:45AM 30.3636 -90.1192 81° East 478 550 29,800 -1,860 Descending Houston Center
08:46AM 30.3850 -89.9656 81° East 480 552 27,700 -1,920 Descending Houston Center
08:47AM 30.4031 -89.8303 81° East 483 556 25,900 -2,160 Descending Houston Center
08:48AM 30.4283 -89.6464 81° East 487 560 23,300 -2,340 Descending Houston Center
08:49AM 30.4481 -89.4939 81° East 480 552 21,200 -2,100 Descending Houston Center
08:50AM 30.4675 -89.3444 81° East 473 544 19,100 -1,980 Descending Houston Center
08:51AM 30.4867 -89.1961 81° East 469 540 17,200 -1,980 Descending Houston Center
08:52AM 30.5036 -89.0511 82° East 459 528 15,100 -2,100 Descending Houston Center
08:53AM 30.5203 -88.9144 82° East 444 511 13,000 -2,100 Descending Houston Center
08:54AM 30.5639 -88.7931 67° East 423 487 10,800 -1,860 Descending Houston Center
08:55AM 30.6122 -88.6683 66° East 361 415 9,300 -1,920 Descending Houston Center
08:56AM 30.6422 -88.5781 69° East 314 361 6,900 -2,340 Descending Houston Center
08:57AM 30.6522 -88.4786 83° East 315 362 4,600 -1,920 Descending Houston Center
08:58AM 30.6622 -88.3844 83° East 305 351 3,000 -780 Descending Houston Center
08:59AM 30.6708 -88.3033 83° East 278 320 3,000 -60 Level Houston Center
09:00AM 30.6978 -88.2464 61° Northeast 235 270 2,900 -300 Descending Houston Center
09:01AM 30.7264 -88.1822 63° Northeast 206 237 2,500 -600 Descending Houston Center
09:02AM 30.6950 -88.1403 131° Southeast 187 215 1,700 -900 Descending Houston Center
09:03AM 30.6603 -88.1061 140° Southeast 175 201 700 -780 Descending Houston Center
09:04AM 30.6342 -88.0797 139° Southeast 145 167 100 -600 Descending Houston Center
09:06AM 30.6268 -88.0681 77° East  Level Estimated
09:13AM 30.6268 -88.0681 77° East  Level Estimated